.
WxDataArchive / Data Records for 2007-09-06
2007-09-05 September 2007 2007-09-07

Data Records for Thursday, 06 September 2007

Time	Temp	Chill	HIndex	Humid	Dewpt	 Wind 	HiWind	WindDir	Rain 	Barom 
-----	----	-----	------	-----	-----	------	------	-------	-----	----- 
00:00	70.9	70.9	70.9	71	61.0	0	0	---	0.00	29.942 
00:05	70.8	70.8	70.8	72	61.3	0	1	90	0.00	29.940 
00:10	70.8	70.8	70.8	71	60.9	0	1	90	0.00	29.939 
00:15	70.9	70.9	70.9	70	60.6	0	1	90	0.00	29.942 
00:20	71.3	71.3	71.3	70	61.0	0	1	90	0.00	29.944 
00:25	71.5	71.5	71.5	69	60.8	0	1	90	0.00	29.946 
00:30	71.5	71.5	71.5	70	61.2	0	1	90	0.00	29.946 
00:35	71.5	71.5	71.5	69	60.8	0	1	90	0.00	29.950 
00:40	71.5	71.5	71.5	69	60.8	0	2	90	0.00	29.945 
00:45	71.6	71.6	71.6	69	60.9	0	1	90	0.00	29.946 
00:50	71.6	71.6	71.6	69	60.9	0	1	90	0.00	29.945 
00:55	71.5	71.5	71.5	70	61.2	0	1	90	0.00	29.945 
01:00	70.9	70.9	70.9	71	61.0	0	1	90	0.00	29.945 
01:05	70.6	70.6	70.6	72	61.1	0	1	90	0.00	29.949 
01:10	70.3	70.3	70.3	72	60.8	0	0	---	0.00	29.949 
01:15	69.9	69.9	69.9	73	60.8	0	1	90	0.00	29.946 
01:20	69.6	69.6	69.6	74	60.9	0	0	---	0.00	29.947 
01:25	69.3	69.3	69.3	75	61.0	0	0	---	0.00	29.948 
01:30	68.9	68.9	68.9	76	61.0	0	0	---	0.00	29.947 
01:35	68.6	68.6	68.6	76	60.7	0	0	---	0.00	29.947 
01:40	68.3	68.3	68.3	77	60.8	0	0	---	0.00	29.946 
01:45	67.9	67.9	67.9	77	60.4	0	0	---	0.00	29.946 
01:50	67.8	67.8	67.8	78	60.7	0	0	---	0.00	29.944 
01:55	67.4	67.4	67.4	79	60.7	0	0	---	0.00	29.946 
02:00	67.3	67.3	67.3	80	60.9	0	0	---	0.00	29.944 
02:05	66.9	66.9	66.9	80	60.5	0	0	---	0.00	29.943 
02:10	66.8	66.8	66.8	81	60.8	0	0	---	0.00	29.942 
02:15	66.6	66.6	66.6	82	60.9	0	0	---	0.00	29.942 
02:20	66.4	66.4	66.4	82	60.7	0	0	---	0.00	29.944 
02:25	66.3	66.3	66.3	83	61.0	0	0	---	0.00	29.945 
02:30	66.3	66.3	66.3	83	61.0	0	0	---	0.00	29.944 
02:35	66.1	66.1	66.1	84	61.1	0	0	---	0.00	29.943 
02:40	66.0	66.0	66.0	84	61.0	0	0	---	0.00	29.944 
02:45	65.8	65.8	65.8	85	61.2	0	0	---	0.00	29.943 
02:50	65.6	65.6	65.6	85	61.0	0	0	---	0.00	29.945 
02:55	65.5	65.5	65.5	85	60.9	0	0	---	0.00	29.946 
03:00	65.3	65.3	65.3	85	60.7	0	0	---	0.00	29.946 
03:05	65.3	65.3	65.3	86	61.0	0	0	---	0.00	29.947 
03:10	65.2	65.2	65.2	87	61.2	0	0	---	0.00	29.947 
03:15	65.0	65.0	65.0	87	61.0	0	0	---	0.00	29.945 
03:20	65.0	65.0	65.0	88	61.4	0	0	---	0.00	29.946 
03:25	64.8	64.8	64.8	88	61.2	0	0	---	0.00	29.947 
03:30	64.7	64.7	64.7	88	61.1	0	0	---	0.00	29.947 
03:35	64.5	64.5	64.5	88	60.9	0	0	---	0.00	29.947 
03:40	64.5	64.5	64.5	89	61.2	0	0	---	0.00	29.947 
03:45	64.3	64.3	64.3	89	61.0	0	0	---	0.00	29.948 
03:50	64.3	64.3	64.3	89	61.0	0	0	---	0.00	29.949 
03:55	64.3	64.3	64.3	90	61.3	0	0	---	0.00	29.950 
04:00	64.3	64.3	64.3	90	61.3	0	0	---	0.00	29.951 
04:05	64.3	64.3	64.3	91	61.6	0	0	---	0.00	29.953 
04:10	64.5	64.5	64.5	91	61.8	0	0	---	0.00	29.953 
04:15	64.5	64.5	64.5	91	61.8	0	0	---	0.00	29.952 
04:20	64.5	64.5	64.5	91	61.8	0	0	---	0.00	29.952 
04:25	64.5	64.5	64.5	91	61.8	0	0	---	0.00	29.951 
04:30	64.5	64.5	64.5	91	61.8	0	0	---	0.00	29.952 
04:35	64.5	64.5	64.5	91	61.8	0	0	---	0.00	29.951 
04:40	64.7	64.7	64.7	91	62.0	0	0	---	0.00	29.951 
04:45	64.8	64.8	64.8	91	62.1	0	0	---	0.00	29.952 
04:50	64.8	64.8	64.8	91	62.1	0	0	---	0.00	29.952 
04:55	65.0	65.0	65.0	91	62.3	0	0	---	0.00	29.952 
05:00	65.2	65.2	65.2	90	62.2	0	0	---	0.00	29.953 
05:05	65.3	65.3	65.3	90	62.3	0	0	---	0.00	29.955 
05:10	65.5	65.5	65.5	90	62.5	0	0	---	0.00	29.955 
05:15	65.5	65.5	65.5	89	62.2	0	0	---	0.00	29.956 
05:20	65.6	65.6	65.6	89	62.3	0	0	---	0.00	29.958 
05:25	65.8	65.8	65.8	89	62.5	0	0	---	0.00	29.961 
05:30	66.0	66.0	66.0	88	62.3	0	0	---	0.00	29.963 
05:35	66.0	66.0	66.0	88	62.3	0	0	---	0.00	29.964 
05:40	66.1	66.1	66.1	88	62.4	0	0	---	0.00	29.965 
05:45	66.1	66.1	66.1	88	62.4	0	0	---	0.00	29.966 
05:50	66.3	66.3	66.3	88	62.6	0	0	---	0.00	29.967 
05:55	66.6	66.6	66.6	87	62.6	0	0	---	0.00	29.968 
06:00	66.8	66.8	66.8	86	62.5	0	0	---	0.00	29.967 
06:05	66.8	66.8	66.8	85	62.1	0	0	---	0.00	29.973 
06:10	66.9	66.9	66.9	85	62.2	0	0	---	0.00	29.975 
06:15	67.1	67.1	67.1	84	62.1	0	1	90	0.00	29.976 
06:20	67.3	67.3	67.3	83	62.0	0	1	90	0.00	29.979 
06:25	67.6	67.6	67.6	82	61.9	0	1	90	0.00	29.982 
06:30	67.9	67.9	67.9	81	61.8	0	0	---	0.00	29.982 
06:35	68.1	68.1	68.1	80	61.7	0	1	90	0.00	29.983 
06:40	68.4	68.4	68.4	80	62.0	0	1	90	0.00	29.984 
06:45	68.8	68.8	68.8	80	62.4	0	0	---	0.00	29.984 
06:50	68.9	68.9	68.9	80	62.5	0	1	90	0.00	29.984 
06:55	68.9	68.9	68.9	80	62.5	0	0	---	0.00	29.985 
07:00	69.1	69.1	69.1	80	62.7	0	0	---	0.00	29.985 
07:05	69.1	69.1	69.1	80	62.7	0	0	---	0.00	29.989 
07:10	69.3	69.3	69.3	80	62.9	0	0	---	0.00	29.990 
07:15	69.3	69.3	69.3	80	62.9	0	0	---	0.00	29.991 
07:20	69.4	69.4	69.4	81	63.3	0	0	---	0.00	29.994 
07:25	69.4	69.4	69.4	81	63.3	0	0	---	0.00	29.992 
07:30	69.6	69.6	69.6	81	63.5	0	0	---	0.00	29.995 
07:35	69.6	69.6	69.6	81	63.5	0	0	---	0.00	29.994 
07:40	69.8	69.8	69.8	81	63.7	0	0	---	0.00	29.995 
07:45	69.9	69.9	69.9	80	63.4	0	0	---	0.00	29.996 
07:50	70.3	70.3	70.3	80	63.8	0	0	---	0.00	29.997 
07:55	70.4	70.4	70.4	80	63.9	0	0	---	0.00	29.998 
08:00	70.6	70.6	70.6	81	64.5	0	0	---	0.00	29.997 
08:05	70.8	70.8	70.8	81	64.7	0	0	---	0.00	30.001 
08:10	70.9	70.9	70.9	80	64.4	0	1	90	0.00	30.002 
08:15	71.3	71.3	71.3	79	64.4	0	0	---	0.00	30.001 
08:20	71.6	71.6	71.6	78	64.4	0	1	90	0.00	30.001 
08:25	72.0	72.0	72.0	77	64.4	0	1	90	0.00	30.001 
08:30	72.3	72.3	72.3	77	64.7	0	0	---	0.00	30.001 
08:35	72.7	72.7	72.7	76	64.7	0	1	90	0.00	30.002 
08:40	73.0	73.0	73.0	75	64.6	0	1	90	0.00	30.003 
08:45	73.3	73.3	73.3	75	64.9	0	1	90	0.00	30.004 
08:50	73.7	73.7	73.7	74	64.9	0	1	90	0.00	30.003 
08:55	73.9	73.9	73.9	75	65.5	0	1	90	0.00	30.004 
09:00	74.2	74.2	74.2	76	66.1	0	1	90	0.00	30.006 
09:05	74.6	74.6	74.6	74	65.7	0	0	---	0.00	30.009 
09:10	74.9	74.9	74.9	73	65.6	0	2	90	0.00	30.010 
09:15	75.3	75.3	76.7	73	66.0	0	2	90	0.00	30.010 
09:20	75.6	75.6	77.2	70	65.1	1	3	90	0.00	30.011 
09:25	76.0	76.0	77.6	71	65.9	0	2	90	0.00	30.014 
09:30	76.3	76.3	77.9	71	66.2	0	1	90	0.00	30.016 
09:35	76.8	76.8	78.6	69	65.8	0	1	90	0.00	30.014 
09:40	77.4	77.4	79.2	69	66.4	0	1	90	0.00	30.014 
09:45	77.9	77.9	79.9	69	66.9	0	1	90	0.00	30.014 
09:50	78.5	78.5	80.5	67	66.6	0	1	90	0.00	30.015 
09:55	79.0	79.0	81.2	67	67.1	0	1	90	0.00	30.014 
10:00	79.2	79.2	81.3	65	66.4	0	1	112	0.00	30.015 
10:05	79.4	79.4	81.6	65	66.6	1	2	112	0.00	30.021 
10:10	79.6	79.6	81.7	64	66.3	1	4	270	0.00	30.019 
10:15	79.9	79.9	82.0	63	66.2	1	5	248	0.00	30.022 
10:20	79.9	79.9	82.1	64	66.6	0	2	248	0.00	30.023 
10:25	80.1	80.1	82.3	63	66.3	1	3	248	0.00	30.028 
10:30	80.1	80.1	82.2	62	65.9	2	5	270	0.00	30.023 
10:35	79.9	79.9	82.0	63	66.2	1	4	270	0.00	30.021 
10:40	79.9	79.9	82.0	63	66.2	1	4	225	0.00	30.020 
10:45	79.9	79.9	82.1	64	66.6	1	3	248	0.00	30.022 
10:50	80.1	80.1	82.5	65	67.2	1	3	270	0.00	30.018 
10:55	80.3	80.3	82.7	64	67.0	1	3	270	0.00	30.018 
11:00	80.5	80.5	82.8	63	66.7	1	3	248	0.00	30.016 
11:05	80.7	80.7	83.1	63	66.9	1	3	248	0.00	30.015 
11:10	80.9	80.9	83.5	64	67.6	1	3	270	0.00	30.015 
11:15	81.2	81.2	83.6	62	66.9	1	2	270	0.00	30.014 
11:20	81.6	81.6	84.4	63	67.8	1	4	225	0.00	30.014 
11:25	81.8	81.8	84.7	63	67.9	1	2	248	0.00	30.014 
11:30	81.4	81.4	83.8	61	66.6	1	4	248	0.00	30.013 
11:35	81.2	81.2	83.6	62	66.9	1	3	270	0.00	30.011 
11:40	81.2	81.2	83.6	62	66.9	1	3	248	0.00	30.010 
11:45	81.2	81.2	83.5	61	66.4	1	3	248	0.00	30.009 
11:50	81.2	81.2	83.5	61	66.4	1	3	270	0.00	30.013 
11:55	81.2	81.2	83.6	62	66.9	1	3	270	0.00	30.013 
12:00	81.1	81.1	83.5	62	66.8	0	2	270	0.00	30.010 
12:05	80.9	80.9	83.2	62	66.6	0	2	270	0.00	30.010 
12:10	80.9	80.9	83.4	63	67.1	1	2	270	0.00	30.010 
12:15	80.7	80.7	83.1	63	66.9	1	2	270	0.00	30.010 
12:20	80.9	80.9	83.7	65	68.0	1	2	270	0.00	30.006 
12:25	81.2	81.2	84.1	65	68.3	0	2	270	0.00	30.007 
12:30	81.6	81.6	84.6	64	68.2	0	2	270	0.00	30.007 
12:35	81.8	81.8	84.7	63	67.9	1	3	270	0.00	30.009 
12:40	81.8	81.8	84.5	62	67.5	1	2	270	0.00	30.009 
12:45	82.0	82.0	84.8	62	67.7	0	2	270	0.00	30.005 
12:50	82.4	82.4	85.4	62	68.0	0	1	292	0.00	30.003 
12:55	82.6	82.6	85.7	62	68.2	1	3	270	0.00	30.001 
13:00	82.6	82.6	85.5	61	67.8	1	5	270	0.00	30.002 
13:05	82.4	82.4	85.0	60	67.1	2	3	270	0.00	30.009 
13:10	82.0	82.0	84.6	61	67.2	1	4	248	0.00	30.007 
13:15	81.6	81.6	84.2	62	67.3	1	4	270	0.00	30.004 
13:20	81.6	81.6	84.2	62	67.3	1	5	270	0.00	30.003 
13:25	81.6	81.6	84.0	61	66.8	1	4	270	0.00	30.003 
13:30	81.4	81.4	83.8	61	66.6	1	4	292	0.00	30.003 
13:35	81.4	81.4	83.9	62	67.1	1	4	248	0.00	30.002 
13:40	81.2	81.2	83.6	62	66.9	2	4	270	0.00	30.000 
13:45	81.1	81.1	83.5	62	66.8	1	4	248	0.00	29.999 
13:50	80.9	80.9	83.4	63	67.1	1	3	225	0.00	29.999 
13:55	80.7	80.7	83.1	63	66.9	1	3	248	0.00	29.997 
14:00	80.7	80.7	83.5	66	68.3	1	3	270	0.00	29.997 
14:05	80.7	80.7	83.2	64	67.4	1	3	270	0.00	29.997 
14:10	80.7	80.7	82.9	62	66.4	1	2	270	0.00	29.996 
14:15	80.7	80.7	82.9	62	66.4	1	3	248	0.00	29.996 
14:20	80.5	80.5	82.5	61	65.8	1	3	248	0.00	29.993 
14:25	80.5	80.5	82.7	62	66.3	1	3	248	0.00	29.991 
14:30	80.5	80.5	82.7	62	66.3	1	4	248	0.00	29.989 
14:35	80.7	80.7	83.4	65	67.8	1	4	248	0.00	29.987 
14:40	81.1	81.1	83.5	62	66.8	1	3	292	0.00	29.986 
14:45	81.2	81.2	83.6	62	66.9	2	5	248	0.00	29.983 
14:50	81.4	81.4	83.9	62	67.1	1	5	248	0.00	29.980 
14:55	81.4	81.4	83.9	62	67.1	1	4	270	0.00	29.982 
15:00	81.6	81.6	84.2	62	67.3	1	3	248	0.00	29.978 
15:05	81.6	81.6	84.0	61	66.8	2	6	270	0.00	29.976 
15:10	81.6	81.6	84.4	63	67.8	1	4	270	0.00	29.975 
15:15	81.6	81.6	83.9	60	66.3	1	5	248	0.00	29.972 
15:20	81.8	81.8	83.8	58	65.6	1	5	270	0.00	29.971 
15:25	82.0	82.0	84.1	58	65.7	2	5	270	0.00	29.972 
15:30	82.4	82.4	84.6	58	66.1	2	4	270	0.00	29.972 
15:35	82.6	82.6	84.9	58	66.3	1	6	248	0.00	29.971 
15:40	82.4	82.4	84.6	58	66.1	2	6	270	0.00	29.971 
15:45	82.4	82.4	84.6	58	66.1	2	5	292	0.00	29.969 
15:50	83.0	83.0	85.1	56	65.7	3	6	270	0.00	29.964 
15:55	83.2	83.2	85.6	57	66.4	2	9	248	0.00	29.965 
16:00	83.4	83.4	85.4	55	65.5	2	9	270	0.00	29.963 
16:05	83.2	83.2	85.6	57	66.4	3	7	270	0.00	29.961 
16:10	83.2	83.2	85.3	56	65.8	2	7	248	0.00	29.957 
16:15	83.2	83.2	85.6	57	66.4	3	7	270	0.00	29.956 
16:20	83.2	83.2	85.3	56	65.8	3	11	248	0.00	29.956 
16:25	83.0	83.0	85.3	57	66.2	2	6	248	0.00	29.955 
16:30	82.8	82.8	85.2	58	66.5	2	5	292	0.00	29.954 
16:35	82.6	82.6	84.7	57	65.8	2	7	248	0.00	29.954 
16:40	82.4	82.4	84.6	58	66.1	2	5	248	0.00	29.954 
16:45	82.2	82.2	84.5	59	66.4	1	6	270	0.00	29.955 
16:50	82.0	82.0	84.1	58	65.7	1	6	270	0.00	29.956 
16:55	81.8	81.8	83.6	57	65.0	2	6	270	0.00	29.957 
17:00	81.6	81.6	83.4	57	64.9	2	6	270	0.00	29.958 
17:05	81.4	81.4	83.3	58	65.2	1	3	270	0.00	29.959 
17:10	81.4	81.4	83.4	59	65.7	1	5	248	0.00	29.961 
17:15	81.4	81.4	83.4	59	65.7	2	6	248	0.00	29.962 
17:20	81.2	81.2	83.3	60	66.0	1	5	248	0.00	29.961 
17:25	81.2	81.2	83.5	61	66.4	1	4	248	0.00	29.961 
17:30	81.1	81.1	83.2	60	65.9	2	5	270	0.00	29.964 
17:35	80.9	80.9	82.9	60	65.7	3	10	248	0.00	29.969 
17:40	80.5	80.5	82.5	61	65.8	2	5	270	0.00	29.968 
17:45	80.3	80.3	82.3	61	65.6	2	7	248	0.00	29.968 
17:50	80.1	80.1	82.2	62	65.9	3	7	270	0.00	29.969 
17:55	79.9	79.9	81.9	62	65.7	1	6	270	0.00	29.970 
18:00	79.8	79.8	81.9	63	66.1	2	6	248	0.00	29.971 
18:05	79.6	79.6	81.6	63	65.9	2	4	270	0.00	29.969 
18:10	79.8	79.8	82.0	64	66.5	1	7	270	0.00	29.967 
18:15	79.6	79.6	81.7	64	66.3	1	4	315	0.00	29.964 
18:20	79.6	79.6	81.8	65	66.8	0	2	270	0.00	29.965 
18:25	79.4	79.4	81.6	65	66.6	0	3	45	0.00	29.966 
18:30	79.4	79.4	81.6	65	66.6	1	3	270	0.00	29.963 
18:35	79.2	79.2	81.3	65	66.4	1	4	248	0.00	29.958 
18:40	79.0	79.0	81.1	66	66.6	0	3	292	0.00	29.957 
18:45	78.8	78.8	80.9	66	66.5	1	4	248	0.00	29.955 
18:50	78.6	78.6	80.7	67	66.7	0	1	248	0.00	29.955 
18:55	78.5	78.5	80.5	67	66.6	1	3	68	0.00	29.956 
19:00	78.1	78.1	80.0	67	66.2	0	5	68	0.00	29.959 
19:05	77.9	77.9	79.8	67	66.0	1	3	68	0.00	29.957 
19:10	77.9	77.9	79.7	63	64.3	1	4	270	0.00	29.958 
19:15	77.9	77.9	79.6	60	62.9	1	4	270	0.00	29.956 
19:20	78.1	78.1	79.6	57	61.6	2	13	248	0.00	29.958 
19:25	77.9	77.9	79.4	55	60.4	2	6	292	0.00	29.957 
19:30	77.7	77.7	79.2	54	59.7	1	9	248	0.00	29.960 
19:35	77.7	77.7	79.1	52	58.6	2	5	315	0.00	29.962 
19:40	77.6	77.6	79.1	53	59.1	1	5	225	0.00	29.963 
19:45	77.4	77.4	78.9	53	58.9	1	3	225	0.00	29.963 
19:50	77.2	77.2	78.8	52	58.2	1	9	270	0.00	29.963 
19:55	77.2	77.2	78.8	52	58.2	1	5	248	0.00	29.963 
20:00	77.0	77.0	78.7	52	58.0	1	7	225	0.00	29.966 
20:05	76.8	76.8	78.5	53	58.4	1	3	270	0.00	29.965 
20:10	76.7	76.7	78.5	53	58.3	0	2	315	0.00	29.965 
20:15	76.5	76.5	78.4	54	58.6	0	2	270	0.00	29.965 
20:20	76.3	76.3	78.3	54	58.4	1	3	270	0.00	29.967 
20:25	76.1	76.1	78.1	55	58.7	0	2	270	0.00	29.966 
20:30	75.8	75.8	77.9	56	59.0	0	2	270	0.00	29.968 
20:35	75.6	75.6	77.8	56	58.8	0	2	270	0.00	29.968 
20:40	75.4	75.4	77.7	57	59.1	0	1	270	0.00	29.969 
20:45	75.1	75.1	77.5	58	59.3	0	1	270	0.00	29.971 
20:50	74.9	74.9	74.9	58	59.1	0	0	---	0.00	29.972 
20:55	74.6	74.6	74.6	59	59.3	0	0	---	0.00	29.972 
21:00	74.2	74.2	74.2	60	59.4	0	1	270	0.00	29.973 
21:05	73.9	73.9	73.9	61	59.6	0	0	---	0.00	29.968 
21:10	73.7	73.7	73.7	62	59.9	0	1	270	0.00	29.968 
21:15	73.3	73.3	73.3	63	59.9	0	2	270	0.00	29.967 
21:20	73.5	73.5	73.5	63	60.1	1	3	68	0.00	29.967 
21:25	73.5	73.5	73.5	64	60.6	0	2	68	0.00	29.966 
21:30	73.5	73.5	73.5	65	61.0	1	3	112	0.00	29.966 
21:35	73.5	73.5	73.5	66	61.4	0	2	112	0.00	29.967 
21:40	73.3	73.3	73.3	67	61.7	0	2	90	0.00	29.967 
21:45	73.2	73.2	73.2	67	61.6	1	2	90	0.00	29.966 
21:50	73.2	73.2	73.2	68	62.0	1	2	90	0.00	29.965 
21:55	73.2	73.2	73.2	67	61.6	1	3	90	0.00	29.965 
22:00	73.3	73.3	73.3	67	61.7	1	4	90	0.00	29.965 
22:05	73.5	73.5	73.5	67	61.9	1	4	270	0.00	29.962 
22:10	73.5	73.5	73.5	67	61.9	1	6	180	0.00	29.963 
22:15	73.5	73.5	73.5	67	61.9	1	4	90	0.00	29.962 
22:20	73.3	73.3	73.3	68	62.1	1	4	248	0.00	29.961 
22:25	73.3	73.3	73.3	68	62.1	1	4	270	0.00	29.960 
22:30	73.3	73.3	73.3	67	61.7	1	3	292	0.00	29.961 
22:35	73.5	73.5	73.5	67	61.9	1	4	270	0.00	29.960 
22:40	73.7	73.7	73.7	66	61.6	1	4	248	0.00	29.959 
22:45	73.5	73.5	73.5	67	61.9	1	3	270	0.00	29.955 
22:50	73.5	73.5	73.5	67	61.9	1	3	270	0.00	29.953 
22:55	73.5	73.5	73.5	67	61.9	1	3	90	0.00	29.951 
23:00	73.5	73.5	73.5	67	61.9	1	4	270	0.00	29.951 
23:05	73.3	73.3	73.3	67	61.7	0	2	0	0.00	29.950 
23:10	73.2	73.2	73.2	68	62.0	0	3	248	0.00	29.948 
23:15	73.0	73.0	73.0	68	61.8	0	2	248	0.00	29.947 
23:20	72.8	72.8	72.8	69	62.0	0	1	248	0.00	29.944 
23:25	72.7	72.7	72.7	69	61.9	0	1	248	0.00	29.941 
23:30	72.5	72.5	72.5	70	62.1	0	0	---	0.00	29.940 
23:35	72.1	72.1	72.1	71	62.2	0	1	248	0.00	29.941 
23:40	72.0	72.0	72.0	72	62.5	0	1	248	0.00	29.942 
23:45	71.8	71.8	71.8	73	62.7	0	1	248	0.00	29.941 
23:50	71.5	71.5	71.5	73	62.4	0	0	---	0.00	29.941 
23:55	71.3	71.3	71.3	74	62.6	0	1	248	0.00	29.937 

CoCoRaHS
IN-AL-39
A2 Web Hosting
Creative Commons License
GoDaddy
Look for:

loaded 2017-10-17 00:23:42 • last modified 2010-11-18 10:43:29
Privacy PolicyDisclaimer
• wx.awcolley.com is powered by PmWiki v.2002016 •
• all content (unless otherwise noted) © 2017 A W Colley